sensor_id;sensor_type;location;lat;lon;timestamp;P1;durP1;ratioP1;P2;durP2;ratioP2
25952;SDS011;13750;50.804;8.764;2023-10-19T00:00:33;1.80;;;1.08;;
25952;SDS011;13750;50.804;8.764;2023-10-19T00:02:59;1.60;;;0.95;;
25952;SDS011;13750;50.804;8.764;2023-10-19T00:05:28;1.60;;;1.25;;
25952;SDS011;13750;50.804;8.764;2023-10-19T00:07:59;1.20;;;1.10;;
25952;SDS011;13750;50.804;8.764;2023-10-19T00:10:30;1.45;;;1.25;;
25952;SDS011;13750;50.804;8.764;2023-10-19T00:13:10;1.52;;;1.20;;
25952;SDS011;13750;50.804;8.764;2023-10-19T00:18:10;1.30;;;1.17;;
25952;SDS011;13750;50.804;8.764;2023-10-19T00:20:45;1.27;;;0.90;;
25952;SDS011;13750;50.804;8.764;2023-10-19T00:23:12;1.58;;;1.13;;
25952;SDS011;13750;50.804;8.764;2023-10-19T00:25:41;2.10;;;1.55;;
25952;SDS011;13750;50.804;8.764;2023-10-19T00:28:09;1.63;;;1.20;;
25952;SDS011;13750;50.804;8.764;2023-10-19T00:30:39;1.23;;;1.13;;
25952;SDS011;13750;50.804;8.764;2023-10-19T00:33:07;1.20;;;0.98;;
25952;SDS011;13750;50.804;8.764;2023-10-19T00:35:42;1.52;;;1.20;;
25952;SDS011;13750;50.804;8.764;2023-10-19T00:38:12;1.67;;;0.93;;
25952;SDS011;13750;50.804;8.764;2023-10-19T00:40:57;1.58;;;0.98;;
25952;SDS011;13750;50.804;8.764;2023-10-19T00:43:31;1.35;;;1.17;;
25952;SDS011;13750;50.804;8.764;2023-10-19T00:46:00;1.42;;;1.05;;
25952;SDS011;13750;50.804;8.764;2023-10-19T00:48:39;1.27;;;1.17;;
25952;SDS011;13750;50.804;8.764;2023-10-19T00:51:10;1.17;;;1.05;;
25952;SDS011;13750;50.804;8.764;2023-10-19T00:53:58;1.55;;;1.17;;
25952;SDS011;13750;50.804;8.764;2023-10-19T00:56:36;1.63;;;1.20;;
25952;SDS011;13750;50.804;8.764;2023-10-19T00:59:02;1.35;;;1.13;;
25952;SDS011;13750;50.804;8.764;2023-10-19T01:01:47;1.92;;;1.27;;
25952;SDS011;13750;50.804;8.764;2023-10-19T01:04:19;1.42;;;1.17;;
25952;SDS011;13750;50.804;8.764;2023-10-19T01:06:55;1.48;;;1.20;;
25952;SDS011;13750;50.804;8.764;2023-10-19T01:09:36;1.73;;;0.98;;
25952;SDS011;13750;50.804;8.764;2023-10-19T01:12:03;1.42;;;0.90;;
25952;SDS011;13750;50.804;8.764;2023-10-19T01:15:02;1.52;;;1.23;;
25952;SDS011;13750;50.804;8.764;2023-10-19T01:17:53;1.90;;;1.20;;
25952;SDS011;13750;50.804;8.764;2023-10-19T01:20:23;1.23;;;1.00;;
25952;SDS011;13750;50.804;8.764;2023-10-19T01:25:53;1.83;;;1.20;;
25952;SDS011;13750;50.804;8.764;2023-10-19T01:28:24;1.10;;;1.00;;
25952;SDS011;13750;50.804;8.764;2023-10-19T01:31:17;1.42;;;1.10;;
25952;SDS011;13750;50.804;8.764;2023-10-19T01:33:53;1.30;;;1.13;;
25952;SDS011;13750;50.804;8.764;2023-10-19T01:36:22;1.30;;;0.90;;
25952;SDS011;13750;50.804;8.764;2023-10-19T01:38:48;1.05;;;0.95;;
25952;SDS011;13750;50.804;8.764;2023-10-19T01:41:18;1.10;;;1.08;;
25952;SDS011;13750;50.804;8.764;2023-10-19T01:43:46;1.35;;;1.25;;
25952;SDS011;13750;50.804;8.764;2023-10-19T01:46:18;1.95;;;1.40;;
25952;SDS011;13750;50.804;8.764;2023-10-19T01:48:47;1.38;;;1.10;;
25952;SDS011;13750;50.804;8.764;2023-10-19T01:51:25;1.60;;;1.45;;
25952;SDS011;13750;50.804;8.764;2023-10-19T01:53:53;1.45;;;1.15;;
25952;SDS011;13750;50.804;8.764;2023-10-19T01:58:47;1.98;;;1.55;;
25952;SDS011;13750;50.804;8.764;2023-10-19T02:01:13;1.60;;;1.25;;
25952;SDS011;13750;50.804;8.764;2023-10-19T02:03:52;2.03;;;1.35;;
25952;SDS011;13750;50.804;8.764;2023-10-19T02:06:39;1.42;;;1.33;;
25952;SDS011;13750;50.804;8.764;2023-10-19T02:09:11;2.58;;;1.70;;
25952;SDS011;13750;50.804;8.764;2023-10-19T02:11:50;1.35;;;1.23;;
25952;SDS011;13750;50.804;8.764;2023-10-19T02:14:23;1.40;;;1.30;;
25952;SDS011;13750;50.804;8.764;2023-10-19T02:16:54;1.42;;;1.02;;
25952;SDS011;13750;50.804;8.764;2023-10-19T02:19:29;1.65;;;1.13;;
25952;SDS011;13750;50.804;8.764;2023-10-19T02:21:55;1.63;;;1.53;;
25952;SDS011;13750;50.804;8.764;2023-10-19T02:24:23;1.88;;;1.45;;
25952;SDS011;13750;50.804;8.764;2023-10-19T02:26:52;1.40;;;1.05;;
25952;SDS011;13750;50.804;8.764;2023-10-19T02:29:19;1.30;;;1.02;;
25952;SDS011;13750;50.804;8.764;2023-10-19T02:31:47;1.35;;;1.08;;
25952;SDS011;13750;50.804;8.764;2023-10-19T02:34:13;1.40;;;1.00;;
25952;SDS011;13750;50.804;8.764;2023-10-19T02:36:42;1.30;;;1.10;;
25952;SDS011;13750;50.804;8.764;2023-10-19T02:39:10;1.60;;;1.30;;
25952;SDS011;13750;50.804;8.764;2023-10-19T02:41:37;1.00;;;0.77;;
25952;SDS011;13750;50.804;8.764;2023-10-19T02:44:04;1.15;;;1.00;;
25952;SDS011;13750;50.804;8.764;2023-10-19T02:46:35;0.80;;;0.80;;
25952;SDS011;13750;50.804;8.764;2023-10-19T02:49:04;0.88;;;0.88;;
25952;SDS011;13750;50.804;8.764;2023-10-19T02:51:35;1.00;;;0.90;;
25952;SDS011;13750;50.804;8.764;2023-10-19T02:54:02;1.37;;;1.10;;
25952;SDS011;13750;50.804;8.764;2023-10-19T02:56:27;0.83;;;0.80;;
25952;SDS011;13750;50.804;8.764;2023-10-19T02:58:55;1.10;;;0.80;;
25952;SDS011;13750;50.804;8.764;2023-10-19T03:01:28;1.10;;;0.90;;
25952;SDS011;13750;50.804;8.764;2023-10-19T03:03:58;1.55;;;0.88;;
25952;SDS011;13750;50.804;8.764;2023-10-19T03:06:27;1.15;;;0.90;;
25952;SDS011;13750;50.804;8.764;2023-10-19T03:08:57;1.08;;;0.90;;
25952;SDS011;13750;50.804;8.764;2023-10-19T03:11:26;1.02;;;0.93;;
25952;SDS011;13750;50.804;8.764;2023-10-19T03:13:53;0.90;;;0.70;;
25952;SDS011;13750;50.804;8.764;2023-10-19T03:16:19;1.15;;;0.93;;
25952;SDS011;13750;50.804;8.764;2023-10-19T03:18:46;1.58;;;1.20;;
25952;SDS011;13750;50.804;8.764;2023-10-19T03:21:12;1.20;;;1.10;;
25952;SDS011;13750;50.804;8.764;2023-10-19T03:23:38;1.60;;;1.30;;
25952;SDS011;13750;50.804;8.764;2023-10-19T03:26:05;1.50;;;1.20;;
25952;SDS011;13750;50.804;8.764;2023-10-19T03:28:50;1.40;;;1.10;;
25952;SDS011;13750;50.804;8.764;2023-10-19T03:31:39;1.38;;;0.90;;
25952;SDS011;13750;50.804;8.764;2023-10-19T03:34:14;1.30;;;1.20;;
25952;SDS011;13750;50.804;8.764;2023-10-19T03:36:43;1.20;;;1.00;;
25952;SDS011;13750;50.804;8.764;2023-10-19T03:39:09;1.00;;;0.80;;
25952;SDS011;13750;50.804;8.764;2023-10-19T03:41:39;1.73;;;1.25;;
25952;SDS011;13750;50.804;8.764;2023-10-19T03:44:09;1.10;;;1.00;;
25952;SDS011;13750;50.804;8.764;2023-10-19T03:46:58;1.00;;;0.90;;
25952;SDS011;13750;50.804;8.764;2023-10-19T03:49:26;1.02;;;0.90;;
25952;SDS011;13750;50.804;8.764;2023-10-19T03:52:03;1.33;;;1.00;;
25952;SDS011;13750;50.804;8.764;2023-10-19T03:54:35;1.05;;;0.90;;
25952;SDS011;13750;50.804;8.764;2023-10-19T03:57:04;1.08;;;0.88;;
25952;SDS011;13750;50.804;8.764;2023-10-19T03:59:37;1.10;;;0.90;;
25952;SDS011;13750;50.804;8.764;2023-10-19T04:02:03;0.80;;;0.60;;
25952;SDS011;13750;50.804;8.764;2023-10-19T04:04:38;1.30;;;0.98;;
25952;SDS011;13750;50.804;8.764;2023-10-19T04:07:13;1.27;;;0.90;;
25952;SDS011;13750;50.804;8.764;2023-10-19T04:09:51;0.88;;;0.82;;
25952;SDS011;13750;50.804;8.764;2023-10-19T04:12:29;1.00;;;0.90;;
25952;SDS011;13750;50.804;8.764;2023-10-19T04:14:56;1.00;;;0.82;;
25952;SDS011;13750;50.804;8.764;2023-10-19T04:17:22;1.13;;;0.82;;
25952;SDS011;13750;50.804;8.764;2023-10-19T04:19:49;1.23;;;1.02;;
25952;SDS011;13750;50.804;8.764;2023-10-19T04:22:16;0.80;;;0.70;;
25952;SDS011;13750;50.804;8.764;2023-10-19T04:24:48;1.30;;;0.90;;
25952;SDS011;13750;50.804;8.764;2023-10-19T04:27:15;0.90;;;0.73;;
25952;SDS011;13750;50.804;8.764;2023-10-19T04:29:40;1.07;;;0.87;;
25952;SDS011;13750;50.804;8.764;2023-10-19T04:32:08;0.93;;;0.70;;
25952;SDS011;13750;50.804;8.764;2023-10-19T04:34:35;1.02;;;0.70;;
25952;SDS011;13750;50.804;8.764;2023-10-19T04:37:02;0.82;;;0.80;;
25952;SDS011;13750;50.804;8.764;2023-10-19T04:39:28;0.90;;;0.70;;
25952;SDS011;13750;50.804;8.764;2023-10-19T04:41:55;0.80;;;0.80;;
25952;SDS011;13750;50.804;8.764;2023-10-19T04:44:21;1.73;;;1.43;;
25952;SDS011;13750;50.804;8.764;2023-10-19T04:46:47;2.42;;;1.80;;
25952;SDS011;13750;50.804;8.764;2023-10-19T04:49:13;2.03;;;1.60;;
25952;SDS011;13750;50.804;8.764;2023-10-19T04:51:39;1.67;;;1.40;;
25952;SDS011;13750;50.804;8.764;2023-10-19T04:54:05;1.97;;;1.53;;
25952;SDS011;13750;50.804;8.764;2023-10-19T04:56:33;2.05;;;1.63;;
25952;SDS011;13750;50.804;8.764;2023-10-19T04:59:00;1.70;;;1.40;;
25952;SDS011;13750;50.804;8.764;2023-10-19T05:01:27;1.35;;;1.25;;
25952;SDS011;13750;50.804;8.764;2023-10-19T05:03:53;1.40;;;1.10;;
25952;SDS011;13750;50.804;8.764;2023-10-19T05:06:18;1.37;;;1.17;;
25952;SDS011;13750;50.804;8.764;2023-10-19T05:08:44;1.60;;;1.20;;
25952;SDS011;13750;50.804;8.764;2023-10-19T05:11:11;1.33;;;1.10;;
25952;SDS011;13750;50.804;8.764;2023-10-19T05:13:37;1.80;;;1.40;;
25952;SDS011;13750;50.804;8.764;2023-10-19T05:16:04;1.08;;;0.90;;
25952;SDS011;13750;50.804;8.764;2023-10-19T05:18:30;1.60;;;1.20;;
25952;SDS011;13750;50.804;8.764;2023-10-19T05:20:56;1.53;;;1.20;;
25952;SDS011;13750;50.804;8.764;2023-10-19T05:23:24;1.00;;;0.90;;
25952;SDS011;13750;50.804;8.764;2023-10-19T05:25:51;1.40;;;0.95;;
25952;SDS011;13750;50.804;8.764;2023-10-19T05:28:24;1.15;;;0.80;;
25952;SDS011;13750;50.804;8.764;2023-10-19T05:30:50;1.10;;;1.00;;
25952;SDS011;13750;50.804;8.764;2023-10-19T05:33:16;1.00;;;0.87;;
25952;SDS011;13750;50.804;8.764;2023-10-19T05:35:45;1.88;;;1.13;;
25952;SDS011;13750;50.804;8.764;2023-10-19T05:38:14;1.30;;;1.00;;
25952;SDS011;13750;50.804;8.764;2023-10-19T05:40:40;1.60;;;1.00;;
25952;SDS011;13750;50.804;8.764;2023-10-19T05:43:08;1.38;;;0.80;;
25952;SDS011;13750;50.804;8.764;2023-10-19T05:45:34;1.10;;;1.00;;
25952;SDS011;13750;50.804;8.764;2023-10-19T05:48:01;1.08;;;0.90;;
25952;SDS011;13750;50.804;8.764;2023-10-19T05:50:29;0.80;;;0.77;;
25952;SDS011;13750;50.804;8.764;2023-10-19T05:52:54;1.10;;;0.90;;
25952;SDS011;13750;50.804;8.764;2023-10-19T05:55:20;1.50;;;1.00;;
25952;SDS011;13750;50.804;8.764;2023-10-19T05:57:46;1.17;;;0.80;;
25952;SDS011;13750;50.804;8.764;2023-10-19T06:00:12;1.10;;;0.90;;
25952;SDS011;13750;50.804;8.764;2023-10-19T06:02:39;1.20;;;0.90;;
25952;SDS011;13750;50.804;8.764;2023-10-19T06:05:08;1.25;;;0.90;;
25952;SDS011;13750;50.804;8.764;2023-10-19T06:07:34;1.03;;;0.87;;
25952;SDS011;13750;50.804;8.764;2023-10-19T06:10:00;1.00;;;0.83;;
25952;SDS011;13750;50.804;8.764;2023-10-19T06:12:29;1.50;;;1.15;;
25952;SDS011;13750;50.804;8.764;2023-10-19T06:14:58;1.63;;;1.13;;
25952;SDS011;13750;50.804;8.764;2023-10-19T06:17:25;1.85;;;1.55;;
25952;SDS011;13750;50.804;8.764;2023-10-19T06:19:51;2.28;;;1.08;;
25952;SDS011;13750;50.804;8.764;2023-10-19T06:22:17;1.10;;;0.73;;
25952;SDS011;13750;50.804;8.764;2023-10-19T06:24:43;1.33;;;0.97;;
25952;SDS011;13750;50.804;8.764;2023-10-19T06:27:11;1.63;;;1.13;;
25952;SDS011;13750;50.804;8.764;2023-10-19T06:29:36;1.73;;;1.20;;
25952;SDS011;13750;50.804;8.764;2023-10-19T06:32:02;1.97;;;1.20;;
25952;SDS011;13750;50.804;8.764;2023-10-19T06:34:29;1.48;;;1.15;;
25952;SDS011;13750;50.804;8.764;2023-10-19T06:36:54;1.27;;;1.07;;
25952;SDS011;13750;50.804;8.764;2023-10-19T06:39:20;1.53;;;1.20;;
25952;SDS011;13750;50.804;8.764;2023-10-19T06:41:47;1.27;;;1.15;;
25952;SDS011;13750;50.804;8.764;2023-10-19T06:44:13;1.52;;;1.10;;
25952;SDS011;13750;50.804;8.764;2023-10-19T06:46:38;1.38;;;0.93;;
25952;SDS011;13750;50.804;8.764;2023-10-19T06:49:04;1.83;;;1.50;;
25952;SDS011;13750;50.804;8.764;2023-10-19T06:51:30;1.47;;;1.07;;
25952;SDS011;13750;50.804;8.764;2023-10-19T06:53:57;1.50;;;1.20;;
25952;SDS011;13750;50.804;8.764;2023-10-19T06:56:22;1.27;;;1.00;;
25952;SDS011;13750;50.804;8.764;2023-10-19T06:58:49;2.03;;;1.43;;
25952;SDS011;13750;50.804;8.764;2023-10-19T07:01:14;1.83;;;1.40;;
25952;SDS011;13750;50.804;8.764;2023-10-19T07:03:41;1.98;;;1.13;;
25952;SDS011;13750;50.804;8.764;2023-10-19T07:06:07;1.87;;;1.27;;
25952;SDS011;13750;50.804;8.764;2023-10-19T07:08:36;1.70;;;1.23;;
25952;SDS011;13750;50.804;8.764;2023-10-19T07:11:02;1.90;;;1.30;;
25952;SDS011;13750;50.804;8.764;2023-10-19T07:13:28;1.83;;;1.20;;
25952;SDS011;13750;50.804;8.764;2023-10-19T07:15:54;1.35;;;1.08;;
25952;SDS011;13750;50.804;8.764;2023-10-19T07:18:19;2.07;;;1.23;;
25952;SDS011;13750;50.804;8.764;2023-10-19T07:20:45;2.37;;;1.50;;
25952;SDS011;13750;50.804;8.764;2023-10-19T07:23:13;1.85;;;1.27;;
25952;SDS011;13750;50.804;8.764;2023-10-19T07:25:46;2.17;;;1.42;;
25952;SDS011;13750;50.804;8.764;2023-10-19T07:28:17;1.90;;;1.20;;
25952;SDS011;13750;50.804;8.764;2023-10-19T07:33:11;2.45;;;1.38;;
25952;SDS011;13750;50.804;8.764;2023-10-19T07:35:43;2.05;;;1.35;;
25952;SDS011;13750;50.804;8.764;2023-10-19T07:38:12;2.97;;;1.83;;
25952;SDS011;13750;50.804;8.764;2023-10-19T07:40:39;3.15;;;1.60;;
25952;SDS011;13750;50.804;8.764;2023-10-19T07:43:04;1.70;;;1.17;;
25952;SDS011;13750;50.804;8.764;2023-10-19T07:45:30;2.67;;;1.53;;
25952;SDS011;13750;50.804;8.764;2023-10-19T07:47:57;2.05;;;1.40;;
25952;SDS011;13750;50.804;8.764;2023-10-19T07:50:32;2.60;;;1.50;;
25952;SDS011;13750;50.804;8.764;2023-10-19T07:53:02;2.72;;;1.40;;
25952;SDS011;13750;50.804;8.764;2023-10-19T07:55:28;1.55;;;1.13;;
25952;SDS011;13750;50.804;8.764;2023-10-19T07:57:54;1.88;;;1.23;;
25952;SDS011;13750;50.804;8.764;2023-10-19T08:00:20;2.37;;;1.30;;
25952;SDS011;13750;50.804;8.764;2023-10-19T08:02:46;1.80;;;0.98;;
25952;SDS011;13750;50.804;8.764;2023-10-19T08:05:13;2.10;;;1.20;;
25952;SDS011;13750;50.804;8.764;2023-10-19T08:10:07;1.33;;;1.10;;
25952;SDS011;13750;50.804;8.764;2023-10-19T08:12:37;1.75;;;1.05;;
25952;SDS011;13750;50.804;8.764;2023-10-19T08:15:06;2.22;;;1.10;;
25952;SDS011;13750;50.804;8.764;2023-10-19T08:17:32;1.23;;;0.80;;
25952;SDS011;13750;50.804;8.764;2023-10-19T08:19:59;2.83;;;1.40;;
25952;SDS011;13750;50.804;8.764;2023-10-19T08:22:28;1.80;;;1.27;;
25952;SDS011;13750;50.804;8.764;2023-10-19T08:24:55;2.42;;;1.30;;
25952;SDS011;13750;50.804;8.764;2023-10-19T08:27:20;1.57;;;1.30;;
25952;SDS011;13750;50.804;8.764;2023-10-19T08:29:46;1.67;;;1.10;;
25952;SDS011;13750;50.804;8.764;2023-10-19T08:32:12;1.90;;;1.23;;
25952;SDS011;13750;50.804;8.764;2023-10-19T08:34:39;1.98;;;1.20;;
25952;SDS011;13750;50.804;8.764;2023-10-19T08:37:06;1.95;;;1.17;;
25952;SDS011;13750;50.804;8.764;2023-10-19T08:39:32;2.07;;;1.33;;
25952;SDS011;13750;50.804;8.764;2023-10-19T08:42:04;1.80;;;1.10;;
25952;SDS011;13750;50.804;8.764;2023-10-19T08:44:31;1.50;;;1.17;;
25952;SDS011;13750;50.804;8.764;2023-10-19T08:46:57;1.90;;;1.30;;
25952;SDS011;13750;50.804;8.764;2023-10-19T08:49:24;2.22;;;1.40;;
25952;SDS011;13750;50.804;8.764;2023-10-19T08:51:51;2.85;;;1.75;;
25952;SDS011;13750;50.804;8.764;2023-10-19T08:54:18;2.00;;;1.38;;
25952;SDS011;13750;50.804;8.764;2023-10-19T08:56:44;2.80;;;1.70;;
25952;SDS011;13750;50.804;8.764;2023-10-19T08:59:12;2.25;;;1.33;;
25952;SDS011;13750;50.804;8.764;2023-10-19T09:01:40;2.88;;;1.58;;
25952;SDS011;13750;50.804;8.764;2023-10-19T09:04:12;2.25;;;1.52;;
25952;SDS011;13750;50.804;8.764;2023-10-19T09:06:44;2.45;;;1.77;;
25952;SDS011;13750;50.804;8.764;2023-10-19T09:09:10;2.20;;;1.40;;
25952;SDS011;13750;50.804;8.764;2023-10-19T09:11:48;2.90;;;1.50;;
25952;SDS011;13750;50.804;8.764;2023-10-19T09:14:17;1.92;;;1.60;;
25952;SDS011;13750;50.804;8.764;2023-10-19T09:16:57;1.95;;;1.25;;
25952;SDS011;13750;50.804;8.764;2023-10-19T09:19:39;2.80;;;1.40;;
25952;SDS011;13750;50.804;8.764;2023-10-19T09:22:06;2.65;;;1.60;;
25952;SDS011;13750;50.804;8.764;2023-10-19T09:24:35;2.73;;;1.40;;
25952;SDS011;13750;50.804;8.764;2023-10-19T09:27:04;2.35;;;1.48;;
25952;SDS011;13750;50.804;8.764;2023-10-19T09:29:30;2.00;;;1.40;;
25952;SDS011;13750;50.804;8.764;2023-10-19T09:31:59;2.03;;;1.42;;
25952;SDS011;13750;50.804;8.764;2023-10-19T09:34:29;2.88;;;1.80;;
25952;SDS011;13750;50.804;8.764;2023-10-19T09:36:59;2.55;;;1.58;;
25952;SDS011;13750;50.804;8.764;2023-10-19T09:39:26;2.78;;;1.70;;
25952;SDS011;13750;50.804;8.764;2023-10-19T09:41:59;2.58;;;1.83;;
25952;SDS011;13750;50.804;8.764;2023-10-19T09:44:45;2.40;;;1.52;;
25952;SDS011;13750;50.804;8.764;2023-10-19T09:47:26;3.97;;;2.20;;
25952;SDS011;13750;50.804;8.764;2023-10-19T09:49:59;3.33;;;2.15;;
25952;SDS011;13750;50.804;8.764;2023-10-19T09:52:25;2.28;;;1.80;;
25952;SDS011;13750;50.804;8.764;2023-10-19T09:55:05;2.63;;;1.77;;
25952;SDS011;13750;50.804;8.764;2023-10-19T09:57:49;2.47;;;1.65;;
25952;SDS011;13750;50.804;8.764;2023-10-19T10:00:22;2.33;;;1.38;;
25952;SDS011;13750;50.804;8.764;2023-10-19T10:02:48;2.53;;;2.00;;
25952;SDS011;13750;50.804;8.764;2023-10-19T10:10:46;3.22;;;2.17;;
25952;SDS011;13750;50.804;8.764;2023-10-19T10:15:56;2.75;;;1.90;;
25952;SDS011;13750;50.804;8.764;2023-10-19T10:18:26;2.40;;;1.90;;
25952;SDS011;13750;50.804;8.764;2023-10-19T10:21:37;2.70;;;1.90;;
25952;SDS011;13750;50.804;8.764;2023-10-19T10:23:50;1.65;;;1.40;;
25952;SDS011;13750;50.804;8.764;2023-10-19T10:26:28;3.33;;;2.00;;
25952;SDS011;13750;50.804;8.764;2023-10-19T10:29:13;3.63;;;2.22;;
25952;SDS011;13750;50.804;8.764;2023-10-19T10:31:44;2.58;;;1.95;;
25952;SDS011;13750;50.804;8.764;2023-10-19T10:36:58;3.72;;;2.65;;
25952;SDS011;13750;50.804;8.764;2023-10-19T10:39:36;3.05;;;2.45;;
25952;SDS011;13750;50.804;8.764;2023-10-19T10:42:06;3.47;;;2.35;;
25952;SDS011;13750;50.804;8.764;2023-10-19T10:44:45;2.72;;;2.08;;
25952;SDS011;13750;50.804;8.764;2023-10-19T10:47:16;3.90;;;2.67;;
25952;SDS011;13750;50.804;8.764;2023-10-19T10:49:53;3.22;;;2.35;;
25952;SDS011;13750;50.804;8.764;2023-10-19T10:52:40;3.30;;;2.33;;
25952;SDS011;13750;50.804;8.764;2023-10-19T10:55:07;3.00;;;2.08;;
25952;SDS011;13750;50.804;8.764;2023-10-19T10:57:36;4.05;;;3.20;;
25952;SDS011;13750;50.804;8.764;2023-10-19T11:00:03;4.10;;;2.87;;
25952;SDS011;13750;50.804;8.764;2023-10-19T11:02:36;3.03;;;2.58;;
25952;SDS011;13750;50.804;8.764;2023-10-19T11:05:07;3.78;;;2.88;;
25952;SDS011;13750;50.804;8.764;2023-10-19T11:07:37;4.88;;;3.85;;
25952;SDS011;13750;50.804;8.764;2023-10-19T11:10:04;4.65;;;4.00;;
25952;SDS011;13750;50.804;8.764;2023-10-19T11:12:30;5.05;;;3.72;;
25952;SDS011;13750;50.804;8.764;2023-10-19T11:14:57;3.73;;;2.70;;
25952;SDS011;13750;50.804;8.764;2023-10-19T11:17:24;5.22;;;4.00;;
25952;SDS011;13750;50.804;8.764;2023-10-19T11:19:56;4.53;;;3.65;;
25952;SDS011;13750;50.804;8.764;2023-10-19T11:22:25;3.20;;;2.83;;
25952;SDS011;13750;50.804;8.764;2023-10-19T11:24:54;3.45;;;3.00;;
25952;SDS011;13750;50.804;8.764;2023-10-19T11:27:26;2.92;;;2.50;;
25952;SDS011;13750;50.804;8.764;2023-10-19T11:30:01;4.03;;;3.38;;
25952;SDS011;13750;50.804;8.764;2023-10-19T11:32:38;2.95;;;2.72;;
25952;SDS011;13750;50.804;8.764;2023-10-19T11:35:04;3.75;;;2.85;;
25952;SDS011;13750;50.804;8.764;2023-10-19T11:37:30;3.10;;;2.80;;
25952;SDS011;13750;50.804;8.764;2023-10-19T11:40:08;3.17;;;2.60;;
25952;SDS011;13750;50.804;8.764;2023-10-19T11:42:35;3.35;;;2.42;;
25952;SDS011;13750;50.804;8.764;2023-10-19T11:45:01;2.33;;;2.13;;
25952;SDS011;13750;50.804;8.764;2023-10-19T11:47:27;2.70;;;2.07;;
25952;SDS011;13750;50.804;8.764;2023-10-19T11:49:53;2.80;;;2.13;;
25952;SDS011;13750;50.804;8.764;2023-10-19T11:52:21;2.50;;;2.25;;
25952;SDS011;13750;50.804;8.764;2023-10-19T11:54:47;6.72;;;4.20;;
25952;SDS011;13750;50.804;8.764;2023-10-19T11:57:13;6.13;;;4.53;;
25952;SDS011;13750;50.804;8.764;2023-10-19T11:59:39;5.00;;;3.90;;
25952;SDS011;13750;50.804;8.764;2023-10-19T12:02:05;4.45;;;3.72;;
25952;SDS011;13750;50.804;8.764;2023-10-19T12:04:32;4.18;;;3.78;;
25952;SDS011;13750;50.804;8.764;2023-10-19T12:07:01;3.28;;;2.83;;
25952;SDS011;13750;50.804;8.764;2023-10-19T12:09:28;3.70;;;3.05;;
25952;SDS011;13750;50.804;8.764;2023-10-19T12:11:54;3.05;;;2.60;;
25952;SDS011;13750;50.804;8.764;2023-10-19T12:14:20;2.97;;;2.67;;
25952;SDS011;13750;50.804;8.764;2023-10-19T12:16:47;2.85;;;2.40;;
25952;SDS011;13750;50.804;8.764;2023-10-19T12:19:13;2.70;;;2.23;;
25952;SDS011;13750;50.804;8.764;2023-10-19T12:21:39;2.27;;;1.90;;
25952;SDS011;13750;50.804;8.764;2023-10-19T12:24:09;2.80;;;2.00;;
25952;SDS011;13750;50.804;8.764;2023-10-19T12:26:35;2.23;;;1.97;;
25952;SDS011;13750;50.804;8.764;2023-10-19T12:29:00;2.50;;;2.20;;
25952;SDS011;13750;50.804;8.764;2023-10-19T12:31:28;1.75;;;1.65;;
25952;SDS011;13750;50.804;8.764;2023-10-19T12:33:55;3.92;;;3.25;;
25952;SDS011;13750;50.804;8.764;2023-10-19T12:36:21;4.03;;;2.90;;
25952;SDS011;13750;50.804;8.764;2023-10-19T12:38:53;3.08;;;2.55;;
25952;SDS011;13750;50.804;8.764;2023-10-19T12:41:19;3.00;;;2.40;;
25952;SDS011;13750;50.804;8.764;2023-10-19T12:43:46;2.97;;;2.67;;
25952;SDS011;13750;50.804;8.764;2023-10-19T12:46:12;2.73;;;2.10;;
25952;SDS011;13750;50.804;8.764;2023-10-19T12:48:39;2.75;;;2.45;;
25952;SDS011;13750;50.804;8.764;2023-10-19T12:51:05;2.53;;;1.83;;
25952;SDS011;13750;50.804;8.764;2023-10-19T12:53:38;2.08;;;1.70;;
25952;SDS011;13750;50.804;8.764;2023-10-19T12:56:04;2.50;;;2.00;;
25952;SDS011;13750;50.804;8.764;2023-10-19T13:00:57;1.63;;;1.52;;
25952;SDS011;13750;50.804;8.764;2023-10-19T13:03:23;1.45;;;1.35;;
25952;SDS011;13750;50.804;8.764;2023-10-19T13:05:52;1.63;;;1.40;;
25952;SDS011;13750;50.804;8.764;2023-10-19T13:08:18;1.67;;;1.40;;
25952;SDS011;13750;50.804;8.764;2023-10-19T13:10:45;1.50;;;1.37;;
25952;SDS011;13750;50.804;8.764;2023-10-19T13:13:13;1.50;;;1.40;;
25952;SDS011;13750;50.804;8.764;2023-10-19T13:15:43;1.48;;;1.30;;
25952;SDS011;13750;50.804;8.764;2023-10-19T13:18:10;2.13;;;1.52;;
25952;SDS011;13750;50.804;8.764;2023-10-19T13:20:38;1.50;;;1.40;;
25952;SDS011;13750;50.804;8.764;2023-10-19T13:23:08;1.55;;;1.27;;
25952;SDS011;13750;50.804;8.764;2023-10-19T13:25:37;1.20;;;1.00;;
25952;SDS011;13750;50.804;8.764;2023-10-19T13:28:05;1.02;;;0.93;;
25952;SDS011;13750;50.804;8.764;2023-10-19T13:30:35;1.17;;;1.08;;
25952;SDS011;13750;50.804;8.764;2023-10-19T13:33:05;1.45;;;1.33;;
25952;SDS011;13750;50.804;8.764;2023-10-19T13:35:32;1.60;;;1.50;;
25952;SDS011;13750;50.804;8.764;2023-10-19T13:37:58;1.05;;;0.90;;
25952;SDS011;13750;50.804;8.764;2023-10-19T13:40:25;1.20;;;1.00;;
25952;SDS011;13750;50.804;8.764;2023-10-19T13:42:55;1.65;;;1.23;;
25952;SDS011;13750;50.804;8.764;2023-10-19T13:45:21;1.45;;;1.10;;
25952;SDS011;13750;50.804;8.764;2023-10-19T13:47:46;1.20;;;1.00;;
25952;SDS011;13750;50.804;8.764;2023-10-19T13:50:12;1.30;;;1.20;;
25952;SDS011;13750;50.804;8.764;2023-10-19T13:52:38;1.03;;;0.97;;
25952;SDS011;13750;50.804;8.764;2023-10-19T13:55:04;1.05;;;0.95;;
25952;SDS011;13750;50.804;8.764;2023-10-19T13:57:32;1.35;;;1.10;;
25952;SDS011;13750;50.804;8.764;2023-10-19T13:59:58;1.20;;;1.10;;
25952;SDS011;13750;50.804;8.764;2023-10-19T14:02:23;1.10;;;0.93;;
25952;SDS011;13750;50.804;8.764;2023-10-19T14:04:50;1.20;;;1.00;;
25952;SDS011;13750;50.804;8.764;2023-10-19T14:09:42;1.35;;;1.05;;
25952;SDS011;13750;50.804;8.764;2023-10-19T14:12:08;0.80;;;0.70;;
25952;SDS011;13750;50.804;8.764;2023-10-19T14:14:34;1.17;;;1.07;;
25952;SDS011;13750;50.804;8.764;2023-10-19T14:17:00;0.80;;;0.80;;
25952;SDS011;13750;50.804;8.764;2023-10-19T14:19:25;0.80;;;0.80;;
25952;SDS011;13750;50.804;8.764;2023-10-19T14:21:51;1.00;;;0.87;;
25952;SDS011;13750;50.804;8.764;2023-10-19T14:24:17;1.15;;;0.90;;
25952;SDS011;13750;50.804;8.764;2023-10-19T14:26:45;1.25;;;1.05;;
25952;SDS011;13750;50.804;8.764;2023-10-19T14:29:11;1.38;;;0.90;;
25952;SDS011;13750;50.804;8.764;2023-10-19T14:31:38;0.77;;;0.70;;
25952;SDS011;13750;50.804;8.764;2023-10-19T14:34:05;1.42;;;1.23;;
25952;SDS011;13750;50.804;8.764;2023-10-19T14:36:33;1.58;;;1.20;;
25952;SDS011;13750;50.804;8.764;2023-10-19T14:38:58;1.90;;;1.63;;
25952;SDS011;13750;50.804;8.764;2023-10-19T14:41:24;1.60;;;1.30;;
25952;SDS011;13750;50.804;8.764;2023-10-19T14:43:49;2.13;;;1.40;;
25952;SDS011;13750;50.804;8.764;2023-10-19T14:46:15;1.30;;;1.10;;
25952;SDS011;13750;50.804;8.764;2023-10-19T14:48:41;1.87;;;1.40;;
25952;SDS011;13750;50.804;8.764;2023-10-19T14:51:06;1.63;;;1.47;;
25952;SDS011;13750;50.804;8.764;2023-10-19T14:53:32;1.63;;;1.43;;
25952;SDS011;13750;50.804;8.764;2023-10-19T14:55:58;1.35;;;1.25;;
25952;SDS011;13750;50.804;8.764;2023-10-19T14:58:24;1.27;;;1.13;;
25952;SDS011;13750;50.804;8.764;2023-10-19T15:00:54;1.35;;;1.25;;
25952;SDS011;13750;50.804;8.764;2023-10-19T15:03:20;1.50;;;1.10;;
25952;SDS011;13750;50.804;8.764;2023-10-19T15:05:52;1.10;;;1.00;;
25952;SDS011;13750;50.804;8.764;2023-10-19T15:08:18;1.05;;;0.98;;
25952;SDS011;13750;50.804;8.764;2023-10-19T15:10:44;1.27;;;1.10;;
25952;SDS011;13750;50.804;8.764;2023-10-19T15:13:10;1.10;;;1.00;;
25952;SDS011;13750;50.804;8.764;2023-10-19T15:15:35;1.23;;;1.00;;
25952;SDS011;13750;50.804;8.764;2023-10-19T15:18:01;1.27;;;1.03;;
25952;SDS011;13750;50.804;8.764;2023-10-19T15:20:29;1.08;;;0.90;;
25952;SDS011;13750;50.804;8.764;2023-10-19T15:22:55;1.25;;;0.95;;
25952;SDS011;13750;50.804;8.764;2023-10-19T15:25:21;1.00;;;0.80;;
25952;SDS011;13750;50.804;8.764;2023-10-19T15:27:49;1.38;;;1.15;;